Time;durP1;ratioP1;P1;durP2;ratioP2;P2;SDS_P1;SDS_P2;PMS_P1;PMS_P2;Temp;Humidity;BMP_temperature;BMP_pressure;BME280_temperature;BME280_humidity;BME280_pressure;Samples;Min_cycle;Max_cycle;Signal;HPM_P1;HPM_P2
2023/01/10 00:00:55;;;;;;;18.65;13.40;;;10.10;99.90;;;;;;5048618;28;20232;-77
2023/01/10 00:03:22;;;;;;;5.32;4.85;;;10.10;99.90;;;;;;5052274;28;20243;-77
2023/01/10 00:05:49;;;;;;;6.75;4.80;;;10.10;99.90;;;;;;5049964;28;20227;-78
2023/01/10 00:08:17;;;;;;;3.90;3.33;;;10.10;99.90;;;;;;5041406;28;20217;-78
2023/01/10 00:10:44;;;;;;;9.57;5.82;;;10.20;99.90;;;;;;5045820;28;20236;-78
2023/01/10 00:13:23;;;;;;;14.68;10.70;;;10.10;99.90;;;;;;5053996;28;20279;-77
2023/01/10 00:15:50;;;;;;;28.08;17.02;;;10.10;99.90;;;;;;5054072;28;20251;-77
2023/01/10 00:18:19;;;;;;;10.43;6.97;;;10.10;99.90;;;;;;5052762;28;20626;-78
2023/01/10 00:20:47;;;;;;;10.05;8.18;;;10.10;99.90;;;;;;5054113;28;20248;-77
2023/01/10 00:23:22;;;;;;;8.82;6.88;;;10.10;99.90;;;;;;5044132;28;20599;-76
2023/01/10 00:25:52;;;;;;;7.38;4.70;;;10.10;99.90;;;;;;5031653;28;20225;-77
2023/01/10 00:28:38;;;;;;;;;;;;;;;;;;;;;
2023/01/10 00:31:18;;;;;;;14.23;11.45;;;10.10;99.90;;;;;;5032864;28;20225;-77
2023/01/10 00:33:46;;;;;;;9.93;8.35;;;10.10;99.90;;;;;;5033767;28;20233;-77
2023/01/10 00:36:13;;;;;;;5.55;5.00;;;10.10;99.90;;;;;;5033895;28;20283;-77
2023/01/10 00:38:40;;;;;;;3.88;3.50;;;10.10;99.90;;;;;;5037466;28;20252;-77
2023/01/10 00:43:59;;;;;;;3.22;2.92;;;10.10;99.90;;;;;;5040011;28;20316;-77
2023/01/10 00:46:29;;;;;;;5.25;4.40;;;10.10;99.90;;;;;;5031630;28;20229;-77
2023/01/10 00:49:00;;;;;;;8.65;6.10;;;10.10;99.90;;;;;;5032957;28;20221;-77
2023/01/10 00:51:27;;;;;;;9.18;7.95;;;10.10;99.90;;;;;;5032365;28;20224;-77
2023/01/10 00:54:00;;;;;;;21.38;17.58;;;10.10;99.90;;;;;;5033437;28;20620;-77
2023/01/10 00:56:28;;;;;;;23.63;15.05;;;10.10;99.90;;;;;;5032756;28;20283;-77
2023/01/10 00:58:57;;;;;;;25.98;16.15;;;10.10;99.90;;;;;;5052642;28;20225;-77
2023/01/10 01:01:29;;;;;;;29.63;22.23;;;10.10;99.90;;;;;;5052032;28;20229;-77
2023/01/10 01:04:11;;;;;;;11.75;9.20;;;10.10;99.90;;;;;;5049189;28;20225;-78
2023/01/10 01:06:44;;;;;;;15.05;11.68;;;10.10;99.90;;;;;;5037574;28;20375;-77
2023/01/10 01:09:20;;;;;;;3.95;3.45;;;10.00;99.90;;;;;;5053330;28;20293;-78
2023/01/10 01:11:48;;;;;;;15.85;11.88;;;10.00;99.90;;;;;;5070025;28;20228;-78
2023/01/10 01:14:17;;;;;;;5.60;4.60;;;10.00;99.90;;;;;;5043114;28;20561;-77
2023/01/10 01:16:47;;;;;;;10.63;8.50;;;10.00;99.90;;;;;;5033116;28;20282;-77
2023/01/10 01:19:17;;;;;;;5.00;3.63;;;10.00;99.90;;;;;;5030387;28;20717;-77
2023/01/10 01:21:57;;;;;;;5.15;4.65;;;10.00;99.90;;;;;;5045364;28;20224;-76
2023/01/10 01:24:24;;;;;;;10.45;8.23;;;10.00;99.90;;;;;;5030940;28;20225;-78
2023/01/10 01:26:51;;;;;;;5.90;4.40;;;9.90;99.90;;;;;;5029979;28;20225;-78
2023/01/10 01:29:18;;;;;;;10.25;7.45;;;9.90;99.90;;;;;;5026836;28;20228;-76
2023/01/10 01:31:48;;;;;;;4.85;3.70;;;9.90;99.90;;;;;;5039659;28;20228;-77
2023/01/10 01:34:16;;;;;;;6.85;5.45;;;9.90;99.90;;;;;;5052576;28;20227;-79
2023/01/10 01:36:50;;;;;;;4.63;3.42;;;9.90;99.90;;;;;;5050853;28;20239;-77
2023/01/10 01:39:19;;;;;;;4.00;3.17;;;9.90;99.90;;;;;;5045236;28;20678;-77
2023/01/10 01:42:06;;;;;;;4.20;3.30;;;9.90;99.90;;;;;;5038918;28;20248;-77
2023/01/10 01:44:38;;;;;;;6.43;5.40;;;9.90;99.90;;;;;;5051807;28;20224;-77
2023/01/10 01:47:10;;;;;;;4.53;3.55;;;9.90;99.90;;;;;;5050747;28;20308;-78
2023/01/10 01:49:40;;;;;;;3.15;2.95;;;9.80;99.90;;;;;;5052001;28;20240;-77
2023/01/10 01:52:14;;;;;;;3.70;3.05;;;9.80;99.90;;;;;;5051333;28;20224;-77
2023/01/10 01:54:41;;;;;;;11.85;7.55;;;9.80;99.90;;;;;;5047206;28;21255;-77
2023/01/10 01:57:14;;;;;;;18.17;12.48;;;9.80;99.90;;;;;;5057249;28;20290;-78
2023/01/10 01:59:53;;;;;;;;;;;;;;;;;;;;;
2023/01/10 02:02:26;;;;;;;20.20;14.82;;;9.70;99.90;;;;;;5041500;28;20877;-77
2023/01/10 02:05:06;;;;;;;11.05;8.30;;;9.70;99.90;;;;;;5049999;28;20671;-77
2023/01/10 02:07:36;;;;;;;6.15;4.45;;;9.70;99.90;;;;;;5034728;28;20300;-77
2023/01/10 02:10:14;;;;;;;6.53;4.80;;;9.70;99.90;;;;;;5037464;28;20767;-78
2023/01/10 02:12:49;;;;;;;6.47;5.70;;;9.70;99.90;;;;;;5032856;28;20243;-79
2023/01/10 02:15:17;;;;;;;6.05;4.80;;;9.70;99.90;;;;;;5051541;28;20236;-77
2023/01/10 02:17:48;;;;;;;5.72;4.75;;;9.70;99.90;;;;;;5052351;28;20227;-77
2023/01/10 02:20:59;;;;;;;4.80;3.42;;;9.60;99.90;;;;;;5052200;28;20233;-77
2023/01/10 02:24:11;;;;;;;4.25;3.70;;;9.70;99.90;;;;;;5033087;28;20213;-77
2023/01/10 02:27:15;;;;;;;6.65;4.70;;;9.60;99.90;;;;;;4990109;28;20234;-78
2023/01/10 02:30:14;;;;;;;3.88;3.58;;;9.60;99.90;;;;;;5011085;28;20307;-78
2023/01/10 02:32:48;;;;;;;3.85;3.45;;;9.50;99.90;;;;;;5026665;28;20221;-78
2023/01/10 02:35:28;;;;;;;3.40;3.10;;;9.50;99.90;;;;;;5035383;28;20290;-78
2023/01/10 02:38:12;;;;;;;3.50;3.20;;;9.50;99.90;;;;;;5031212;28;20703;-78
2023/01/10 02:41:01;;;;;;;5.18;4.10;;;9.50;99.90;;;;;;5021938;28;20655;-78
2023/01/10 02:43:33;;;;;;;4.53;3.75;;;9.50;99.90;;;;;;5023770;28;20304;-77
2023/01/10 02:46:05;;;;;;;6.00;3.50;;;9.40;99.90;;;;;;5038575;28;20225;-77
2023/01/10 02:48:36;;;;;;;3.70;3.40;;;9.40;99.90;;;;;;5032157;28;20300;-77
2023/01/10 02:51:21;;;;;;;4.97;4.28;;;9.40;99.90;;;;;;5027381;28;20306;-77
2023/01/10 02:53:56;;;;;;;4.40;3.55;;;9.40;99.90;;;;;;5034142;28;20228;-78
2023/01/10 02:57:09;;;;;;;4.63;3.55;;;9.40;99.90;;;;;;5037345;28;20697;-77
2023/01/10 03:00:12;;;;;;;3.67;3.35;;;9.40;99.90;;;;;;5032182;28;20236;-77
2023/01/10 03:02:57;;;;;;;5.20;3.78;;;9.40;99.90;;;;;;5034389;28;20217;-79
2023/01/10 03:05:38;;;;;;;5.15;3.20;;;9.40;99.90;;;;;;5026812;28;20584;-78
2023/01/10 03:08:17;;;;;;;6.25;5.03;;;9.40;99.90;;;;;;5049007;28;20221;-79
2023/01/10 03:10:58;;;;;;;5.25;4.75;;;9.40;99.90;;;;;;5028671;28;20228;-78
2023/01/10 03:13:44;;;;;;;5.30;4.03;;;9.40;99.90;;;;;;5046247;28;20308;-79
2023/01/10 03:16:58;;;;;;;3.80;3.42;;;9.30;99.90;;;;;;5042257;28;20274;-78
2023/01/10 03:19:29;;;;;;;5.40;3.80;;;9.30;99.90;;;;;;5032479;28;20221;-78
2023/01/10 03:22:02;;;;;;;3.05;2.70;;;9.30;99.90;;;;;;5035558;28;20239;-78
2023/01/10 03:24:56;;;;;;;;;;;;;;;;;;;;;
2023/01/10 03:27:58;;;;;;;;;;;;;;;;;;;;;
2023/01/10 03:30:52;;;;;;;5.22;3.72;;;9.40;99.90;;;;;;5037864;28;20224;-77
2023/01/10 03:33:32;;;;;;;5.20;4.07;;;9.30;99.90;;;;;;5022134;28;20328;-77
2023/01/10 03:36:15;;;;;;;10.25;4.15;;;9.40;99.90;;;;;;5034161;28;20290;-77
2023/01/10 03:39:09;;;;;;;4.63;3.47;;;9.30;99.90;;;;;;5044945;28;20343;-76
2023/01/10 03:41:59;;;;;;;3.05;2.85;;;9.40;99.90;;;;;;5026085;28;20232;-77
2023/01/10 03:45:19;;;;;;;;;;;;;;;;;;;;;
2023/01/10 03:50:37;;;;;;;7.72;3.55;;;9.40;99.90;;;;;;5028663;28;20225;-78
2023/01/10 03:53:08;;;;;;;4.38;3.28;;;9.40;99.90;;;;;;5037253;28;20233;-78
2023/01/10 03:55:37;;;;;;;8.63;5.97;;;9.40;99.90;;;;;;5044058;28;20239;-78
2023/01/10 03:58:04;;;;;;;5.63;4.15;;;9.40;99.90;;;;;;5044823;28;20328;-77
2023/01/10 04:03:19;;;;;;;7.30;4.57;;;9.40;99.90;;;;;;5045247;28;20311;-76
2023/01/10 04:05:46;;;;;;;5.30;4.70;;;9.50;99.90;;;;;;5053920;28;20233;-77
2023/01/10 04:08:13;;;;;;;6.85;4.15;;;9.50;99.90;;;;;;5051133;28;20256;-77
2023/01/10 04:10:45;;;;;;;6.80;4.75;;;9.50;99.90;;;;;;5074184;22;20221;-78
2023/01/10 04:13:16;;;;;;;4.85;4.05;;;9.50;99.90;;;;;;5033610;28;20222;-79
2023/01/10 04:15:43;;;;;;;4.38;3.97;;;9.50;99.90;;;;;;5033641;28;20218;-78
2023/01/10 04:18:11;;;;;;;7.20;4.40;;;9.50;99.90;;;;;;5033167;28;20225;-77
2023/01/10 04:20:43;;;;;;;5.07;3.50;;;9.50;99.90;;;;;;5032036;28;20615;-77
2023/01/10 04:28:37;;;;;;;4.80;4.30;;;9.50;99.90;;;;;;5031813;28;20226;-78
2023/01/10 04:31:05;;;;;;;5.05;4.55;;;9.50;99.90;;;;;;5033667;28;20356;-78
2023/01/10 04:33:32;;;;;;;6.60;4.53;;;9.50;99.90;;;;;;5034119;28;20221;-78
2023/01/10 04:36:00;;;;;;;7.53;4.78;;;9.50;99.90;;;;;;5032857;28;20540;-77
2023/01/10 04:38:28;;;;;;;9.32;5.43;;;9.60;99.90;;;;;;5033829;28;20534;-77
2023/01/10 04:40:57;;;;;;;5.43;4.85;;;9.50;99.90;;;;;;5032486;28;20261;-77
2023/01/10 04:43:25;;;;;;;6.10;4.57;;;9.60;99.90;;;;;;5033743;28;20314;-77
2023/01/10 04:46:00;;;;;;;8.60;5.28;;;9.50;99.90;;;;;;5023747;28;20604;-78
2023/01/10 04:48:33;;;;;;;9.40;5.80;;;9.60;99.90;;;;;;5023218;28;20271;-79
2023/01/10 04:51:00;;;;;;;6.50;4.53;;;9.50;99.90;;;;;;5031663;28;20324;-78
2023/01/10 04:53:33;;;;;;;8.25;5.90;;;9.50;99.90;;;;;;5033351;28;20316;-78
2023/01/10 04:56:08;;;;;;;5.90;4.20;;;9.50;99.90;;;;;;5024016;28;20299;-78
2023/01/10 04:58:38;;;;;;;7.57;5.30;;;9.50;99.90;;;;;;5032937;28;20221;-78
2023/01/10 05:01:16;;;;;;;6.28;5.68;;;9.50;99.90;;;;;;5032519;28;20615;-77
2023/01/10 05:03:43;;;;;;;11.15;5.35;;;9.50;99.90;;;;;;5033340;28;20229;-77
2023/01/10 05:09:52;;;;;;;7.80;4.47;;;9.50;99.90;;;;;;5028229;28;20232;-75
2023/01/10 05:12:29;;;;;;;10.05;4.72;;;9.40;99.90;;;;;;5006436;28;20441;-76
2023/01/10 05:15:08;;;;;;;12.95;4.95;;;9.40;99.90;;;;;;5032514;28;20336;-76
2023/01/10 05:20:32;;;;;;;15.30;6.65;;;9.40;99.90;;;;;;5025489;28;20653;-76
2023/01/10 05:23:01;;;;;;;9.02;5.72;;;9.50;99.90;;;;;;5012085;28;20318;-77
2023/01/10 05:25:40;;;;;;;;;;;;;;;;;;;;;
2023/01/10 05:28:19;;;;;;;7.35;6.13;;;9.50;99.90;;;;;;5020034;28;20303;-78
2023/01/10 05:30:57;;;;;;;6.97;4.80;;;9.50;99.90;;;;;;5031976;28;20225;-77
2023/01/10 05:33:24;;;;;;;7.85;5.47;;;9.50;99.90;;;;;;5020430;28;20248;-77
2023/01/10 05:36:04;;;;;;;9.48;4.72;;;9.50;99.90;;;;;;5032341;28;20230;-77
2023/01/10 05:38:38;;;;;;;8.57;5.65;;;9.50;99.90;;;;;;5032475;28;20679;-77
2023/01/10 05:41:28;;;;;;;6.75;4.25;;;9.50;99.90;;;;;;5033012;28;20231;-77
2023/01/10 05:44:01;;;;;;;8.27;4.85;;;9.50;99.90;;;;;;5032156;28;20221;-77
2023/01/10 05:46:30;;;;;;;18.27;10.13;;;9.50;99.90;;;;;;5032837;28;20286;-77
2023/01/10 05:48:57;;;;;;;7.05;4.97;;;9.60;99.90;;;;;;5032541;28;20710;-78
2023/01/10 05:51:24;;;;;;;7.35;5.40;;;9.50;99.90;;;;;;5031795;28;20291;-77
2023/01/10 05:53:51;;;;;;;6.40;5.28;;;9.60;99.90;;;;;;5032351;28;20307;-78
2023/01/10 05:56:19;;;;;;;12.48;6.10;;;9.60;99.90;;;;;;5032482;28;20256;-77
2023/01/10 05:58:57;;;;;;;7.45;5.55;;;9.60;99.90;;;;;;5021540;28;20703;-77
2023/01/10 06:01:25;;;;;;;7.40;5.25;;;9.60;99.90;;;;;;5032907;28;20229;-77
2023/01/10 06:03:53;;;;;;;11.10;5.05;;;9.60;99.90;;;;;;5034229;28;20241;-79
2023/01/10 06:06:21;;;;;;;8.30;5.22;;;9.60;99.90;;;;;;5020503;28;20302;-77
2023/01/10 06:09:04;;;;;;;11.25;6.30;;;9.60;99.90;;;;;;5031563;28;20538;-77
2023/01/10 06:11:35;;;;;;;17.00;11.23;;;9.60;99.90;;;;;;4999805;28;20301;-78
2023/01/10 06:14:03;;;;;;;13.27;8.13;;;9.60;99.90;;;;;;4994104;28;20227;-79
2023/01/10 06:16:36;;;;;;;13.40;7.05;;;9.60;99.90;;;;;;4994138;28;20753;-78
2023/01/10 06:19:03;;;;;;;10.85;6.43;;;9.60;99.90;;;;;;4994333;28;20688;-78
2023/01/10 06:21:35;;;;;;;6.53;5.10;;;9.60;99.90;;;;;;4974910;28;20227;-78
2023/01/10 06:24:05;;;;;;;10.80;5.20;;;9.60;99.90;;;;;;5010003;28;20223;-78
2023/01/10 06:26:47;;;;;;;7.10;4.88;;;9.60;99.90;;;;;;4995924;28;20254;-78
2023/01/10 06:29:20;;;;;;;7.03;4.70;;;9.60;99.90;;;;;;4997766;28;20227;-79
2023/01/10 06:31:48;;;;;;;9.80;5.20;;;9.60;99.90;;;;;;4996938;28;20229;-78
2023/01/10 06:34:15;;;;;;;7.45;4.95;;;9.60;99.90;;;;;;4999664;28;20271;-78
2023/01/10 06:36:48;;;;;;;10.77;7.32;;;9.70;99.90;;;;;;5003380;28;20226;-80
2023/01/10 06:39:15;;;;;;;6.82;5.65;;;9.70;99.90;;;;;;5002546;28;20233;-77
2023/01/10 06:41:45;;;;;;;10.98;5.97;;;9.70;99.90;;;;;;5002120;28;20253;-77
2023/01/10 06:44:19;;;;;;;9.05;5.70;;;9.70;99.90;;;;;;5000144;28;20629;-77
2023/01/10 06:46:51;;;;;;;7.28;5.80;;;9.60;99.90;;;;;;5004682;28;20229;-78
2023/01/10 06:49:18;;;;;;;5.85;4.88;;;9.60;99.90;;;;;;5003259;28;20222;-76
2023/01/10 06:51:53;;;;;;;5.40;4.78;;;9.60;99.90;;;;;;4993768;28;20294;-77
2023/01/10 06:54:22;;;;;;;12.57;6.65;;;9.60;99.90;;;;;;5006201;28;20230;-77
2023/01/10 06:56:51;;;;;;;6.88;6.18;;;9.60;99.90;;;;;;4990631;28;20226;-78
2023/01/10 06:59:18;;;;;;;9.52;6.40;;;9.60;99.90;;;;;;5020371;28;20226;-78
2023/01/10 07:01:55;;;;;;;6.88;5.60;;;9.60;99.90;;;;;;5006796;28;20229;-77
2023/01/10 07:04:22;;;;;;;7.55;6.65;;;9.70;99.90;;;;;;5009104;28;20220;-77
2023/01/10 07:06:49;;;;;;;13.75;7.30;;;9.60;99.90;;;;;;5000574;28;20540;-78
2023/01/10 07:09:17;;;;;;;8.35;6.63;;;9.60;99.90;;;;;;4999356;28;20257;-78
2023/01/10 07:11:44;;;;;;;14.63;6.20;;;9.60;99.90;;;;;;5042987;28;20236;-78
2023/01/10 07:14:11;;;;;;;9.35;6.35;;;9.60;99.90;;;;;;5036030;28;20241;-77
2023/01/10 07:16:39;;;;;;;10.85;5.32;;;9.60;99.90;;;;;;5039996;28;20245;-78
2023/01/10 07:19:07;;;;;;;7.40;5.63;;;9.60;99.90;;;;;;5036467;28;20323;-77
2023/01/10 07:21:43;;;;;;;8.90;6.15;;;9.60;99.90;;;;;;5037450;28;20287;-78
2023/01/10 07:24:10;;;;;;;8.35;5.90;;;9.60;99.90;;;;;;5036897;28;20255;-78
2023/01/10 07:26:37;;;;;;;5.45;4.95;;;9.70;99.90;;;;;;5036655;28;20260;-78
2023/01/10 07:29:04;;;;;;;8.63;5.60;;;9.70;99.90;;;;;;5034596;28;20248;-79
2023/01/10 07:31:38;;;;;;;7.85;5.07;;;9.70;99.90;;;;;;5038226;28;20225;-77
2023/01/10 07:34:07;;;;;;;9.35;6.57;;;9.70;99.90;;;;;;5036704;28;20316;-79
2023/01/10 07:36:36;;;;;;;12.43;6.22;;;9.70;99.90;;;;;;5036426;28;20256;-78
2023/01/10 07:39:03;;;;;;;6.68;5.97;;;9.70;99.90;;;;;;5035514;28;20233;-78
2023/01/10 07:41:30;;;;;;;8.80;5.90;;;9.70;99.90;;;;;;5034798;28;20259;-78
2023/01/10 07:43:57;;;;;;;9.55;6.10;;;9.70;99.90;;;;;;5035004;28;20244;-78
2023/01/10 07:46:30;;;;;;;14.10;8.73;;;9.70;99.90;;;;;;5035791;28;20548;-79
2023/01/10 07:48:58;;;;;;;9.93;6.00;;;9.70;99.90;;;;;;5034148;28;20723;-78
2023/01/10 07:51:26;;;;;;;9.20;6.47;;;9.70;99.90;;;;;;5035048;28;20304;-78
2023/01/10 07:53:54;;;;;;;9.52;6.78;;;9.70;99.90;;;;;;5033761;28;20328;-79
2023/01/10 07:56:22;;;;;;;11.13;7.60;;;9.70;99.90;;;;;;5033316;28;20229;-79
2023/01/10 07:58:49;;;;;;;14.65;9.02;;;9.70;99.90;;;;;;5035831;28;20221;-78
2023/01/10 08:01:19;;;;;;;14.63;8.13;;;9.70;99.90;;;;;;5034794;28;20225;-79
2023/01/10 08:03:52;;;;;;;13.02;8.15;;;9.70;99.90;;;;;;5035723;28;20229;-79
2023/01/10 08:06:19;;;;;;;12.85;8.35;;;9.70;99.90;;;;;;5035903;28;20240;-79
2023/01/10 08:08:52;;;;;;;7.93;6.80;;;9.70;99.90;;;;;;5034740;28;20217;-78
2023/01/10 08:11:22;;;;;;;8.25;6.45;;;9.70;99.90;;;;;;5033394;28;20291;-78
2023/01/10 08:13:49;;;;;;;8.52;6.85;;;9.70;99.90;;;;;;5036213;28;20303;-79
2023/01/10 08:16:16;;;;;;;14.30;7.63;;;9.70;99.90;;;;;;5034679;28;20238;-78
2023/01/10 08:18:54;;;;;;;11.25;7.47;;;9.70;99.90;;;;;;5014574;28;20221;-78
2023/01/10 08:22:06;;;;;;;8.57;6.38;;;9.70;99.90;;;;;;5041959;28;20229;-77
2023/01/10 08:25:25;;;;;;;12.23;8.35;;;9.70;99.90;;;;;;4976383;28;20283;-77
2023/01/10 08:28:37;;;;;;;12.80;7.85;;;9.70;99.90;;;;;;5029890;28;20221;-77
2023/01/10 08:31:07;;;;;;;11.27;6.65;;;9.70;99.90;;;;;;5032153;28;20236;-78
2023/01/10 08:33:35;;;;;;;13.40;7.32;;;9.70;99.90;;;;;;5033506;28;20226;-78
2023/01/10 08:36:20;;;;;;;10.30;6.38;;;9.80;99.90;;;;;;5034354;28;20225;-78
2023/01/10 08:38:49;;;;;;;8.93;7.47;;;9.70;99.90;;;;;;5022449;28;20233;-78
2023/01/10 08:41:26;;;;;;;8.60;7.00;;;9.80;99.90;;;;;;5033693;28;20225;-78
2023/01/10 08:45:01;;;;;;;9.40;8.05;;;9.80;99.90;;;;;;5022260;28;20235;-78
2023/01/10 08:47:37;;;;;;;8.45;7.18;;;9.80;99.90;;;;;;5015929;28;20221;-78
2023/01/10 08:50:37;;;;;;;9.82;7.38;;;9.80;99.90;;;;;;5033483;28;20221;-78
2023/01/10 08:53:06;;;;;;;10.32;8.65;;;9.80;99.90;;;;;;4984990;28;20285;-78
2023/01/10 08:55:38;;;;;;;9.73;7.00;;;9.80;99.90;;;;;;5026063;28;20248;-78
2023/01/10 08:58:08;;;;;;;9.48;6.95;;;9.80;99.90;;;;;;5033620;28;20225;-78
2023/01/10 09:00:38;;;;;;;6.90;6.20;;;9.80;99.90;;;;;;5035427;28;20225;-77
2023/01/10 09:03:10;;;;;;;9.20;7.43;;;9.80;99.90;;;;;;5035808;28;20252;-78
2023/01/10 09:05:36;;;;;;;17.58;9.43;;;9.80;99.90;;;;;;5037090;28;20612;-78
2023/01/10 09:08:04;;;;;;;13.73;8.50;;;9.90;99.90;;;;;;5026582;28;20283;-78
2023/01/10 09:10:32;;;;;;;11.35;7.85;;;9.90;99.90;;;;;;5028197;28;20257;-77
2023/01/10 09:13:12;;;;;;;13.68;7.60;;;9.90;99.90;;;;;;5037303;28;20279;-78
2023/01/10 09:15:39;;;;;;;12.65;7.35;;;9.90;99.90;;;;;;5024154;28;20244;-78
2023/01/10 09:18:13;;;;;;;11.65;6.85;;;10.00;99.90;;;;;;5040895;28;20229;-78
2023/01/10 09:20:41;;;;;;;9.65;7.20;;;9.90;99.90;;;;;;5031402;28;20233;-78
2023/01/10 09:23:13;;;;;;;28.40;18.70;;;9.90;99.90;;;;;;5042645;28;20225;-78
2023/01/10 09:25:41;;;;;;;10.10;7.95;;;9.90;99.90;;;;;;5048391;28;20225;-78
2023/01/10 09:28:07;;;;;;;8.32;7.10;;;10.00;99.90;;;;;;5049945;28;20227;-78
2023/01/10 09:30:35;;;;;;;9.27;7.03;;;10.00;99.90;;;;;;5041511;28;20260;-78
2023/01/10 09:33:02;;;;;;;7.63;6.45;;;10.00;99.90;;;;;;5049598;28;20236;-78
2023/01/10 09:35:42;;;;;;;5.75;5.07;;;10.00;99.90;;;;;;5045270;28;20224;-78
2023/01/10 09:38:14;;;;;;;6.00;5.40;;;10.00;99.90;;;;;;5043809;28;20248;-77
2023/01/10 09:40:53;;;;;;;6.65;5.25;;;10.00;99.90;;;;;;5046649;28;20230;-77
2023/01/10 09:43:32;;;;;;;7.88;5.85;;;10.00;99.90;;;;;;5045484;28;20228;-78
2023/01/10 09:46:04;;;;;;;9.68;5.85;;;10.00;99.90;;;;;;5040205;28;20225;-78
2023/01/10 09:48:37;;;;;;;12.60;5.88;;;10.10;99.90;;;;;;5041940;28;20237;-77
2023/01/10 09:51:39;;;;;;;11.25;7.10;;;10.10;99.90;;;;;;5045454;28;20308;-78
2023/01/10 09:54:12;;;;;;;8.18;5.78;;;10.10;99.90;;;;;;5038638;28;20267;-78
2023/01/10 09:56:48;;;;;;;6.55;5.22;;;10.10;99.90;;;;;;5030810;28;20229;-78
2023/01/10 09:59:19;;;;;;;8.88;6.28;;;10.10;99.90;;;;;;5038966;28;20291;-78
2023/01/10 10:01:56;;;;;;;8.05;6.03;;;10.10;99.90;;;;;;5029812;28;20240;-78
2023/01/10 10:04:28;;;;;;;12.07;7.55;;;10.10;99.90;;;;;;5041545;28;20315;-78
2023/01/10 10:06:57;;;;;;;11.27;8.35;;;10.10;99.90;;;;;;5037447;28;20226;-78
2023/01/10 10:09:32;;;;;;;13.20;9.38;;;10.10;99.90;;;;;;5037435;28;20240;-78
2023/01/10 10:12:16;;;;;;;10.73;7.38;;;10.10;99.90;;;;;;5037128;28;20287;-78
2023/01/10 10:14:54;;;;;;;12.25;7.63;;;10.10;99.90;;;;;;5024723;28;20306;-78
2023/01/10 10:17:38;;;;;;;7.13;5.97;;;10.10;99.90;;;;;;5035134;28;20303;-77
2023/01/10 10:20:33;;;;;;;7.35;5.85;;;10.20;99.90;;;;;;5034909;28;20299;-77
2023/01/10 10:23:19;;;;;;;13.52;8.73;;;10.20;99.90;;;;;;5033044;28;20546;-77
2023/01/10 10:26:02;;;;;;;8.15;6.22;;;10.20;99.90;;;;;;5035109;28;20225;-78
2023/01/10 10:28:59;;;;;;;11.77;6.88;;;10.30;99.90;;;;;;5036311;28;20229;-78
2023/01/10 10:31:41;;;;;;;12.30;6.90;;;10.20;99.90;;;;;;5035309;28;20582;-78
2023/01/10 10:34:19;;;;;;;8.23;5.80;;;10.20;99.90;;;;;;5025785;28;20229;-77
2023/01/10 10:36:49;;;;;;;12.93;7.35;;;10.20;99.90;;;;;;5034653;28;20307;-77
2023/01/10 10:39:32;;;;;;;7.13;6.43;;;10.20;99.90;;;;;;5025822;28;20229;-78
2023/01/10 10:42:04;;;;;;;11.65;6.45;;;10.20;99.90;;;;;;5034456;28;20228;-79
2023/01/10 10:44:40;;;;;;;6.95;5.35;;;10.20;99.90;;;;;;5035176;28;20228;-79
2023/01/10 10:47:17;;;;;;;5.28;4.78;;;10.20;99.90;;;;;;5035522;28;20217;-79
2023/01/10 10:49:49;;;;;;;12.55;5.85;;;10.20;99.90;;;;;;5035463;28;20232;-79
2023/01/10 10:52:23;;;;;;;9.27;5.05;;;10.20;99.90;;;;;;5035496;28;20221;-79
2023/01/10 10:54:52;;;;;;;9.38;5.38;;;10.20;99.90;;;;;;5035906;28;20304;-79
2023/01/10 10:57:22;;;;;;;8.27;5.70;;;10.30;99.90;;;;;;5024569;28;20244;-79
2023/01/10 11:00:24;;;;;;;9.07;6.53;;;10.30;99.90;;;;;;5035779;28;20308;-79
2023/01/10 11:02:57;;;;;;;8.45;4.22;;;10.30;99.90;;;;;;5035136;28;20263;-79
2023/01/10 11:05:34;;;;;;;8.15;4.72;;;10.30;99.90;;;;;;5035191;28;20259;-79
2023/01/10 11:08:10;;;;;;;10.07;4.72;;;10.30;99.90;;;;;;5032939;28;20308;-79
2023/01/10 11:10:43;;;;;;;9.48;4.50;;;10.30;99.90;;;;;;5035434;28;20241;-79
2023/01/10 11:13:28;;;;;;;8.35;4.85;;;10.30;99.90;;;;;;5036086;28;20217;-79
2023/01/10 11:15:57;;;;;;;7.57;4.07;;;10.40;99.90;;;;;;5028687;28;20617;-78
2023/01/10 11:18:25;;;;;;;6.50;5.10;;;10.40;99.90;;;;;;5037805;28;20216;-78
2023/01/10 11:20:58;;;;;;;5.80;4.95;;;10.40;99.90;;;;;;5028049;28;20633;-78
2023/01/10 11:24:11;;;;;;;9.20;4.95;;;10.50;99.90;;;;;;5034964;28;20212;-77
2023/01/10 11:26:40;;;;;;;8.13;4.50;;;10.50;99.90;;;;;;5033340;28;20233;-78
2023/01/10 11:29:23;;;;;;;17.08;6.50;;;10.60;99.90;;;;;;5034824;28;20249;-78
2023/01/10 11:31:51;;;;;;;10.05;4.35;;;10.60;99.90;;;;;;5035051;28;20279;-77
2023/01/10 11:34:23;;;;;;;12.70;5.68;;;10.60;99.90;;;;;;5034428;28;20232;-78
2023/01/10 11:39:46;;;;;;;9.93;5.18;;;10.60;99.90;;;;;;5034204;28;20225;-78
2023/01/10 11:42:44;;;;;;;5.10;4.60;;;10.60;99.90;;;;;;5035336;28;20251;-78
2023/01/10 11:45:30;;;;;;;6.28;4.13;;;10.70;99.90;;;;;;5034184;28;20224;-77
2023/01/10 11:48:22;;;;;;;5.57;4.47;;;10.70;99.90;;;;;;5034231;28;20690;-78
2023/01/10 11:50:54;;;;;;;9.35;4.70;;;10.70;99.90;;;;;;5072431;23;20260;-77
2023/01/10 11:53:40;;;;;;;7.43;4.28;;;10.70;99.90;;;;;;5034899;28;20233;-78
2023/01/10 11:56:24;;;;;;;10.73;5.05;;;10.70;99.90;;;;;;5027848;28;20287;-79
2023/01/10 11:59:00;;;;;;;8.43;4.55;;;10.80;99.90;;;;;;5041697;28;20212;-78
2023/01/10 12:01:37;;;;;;;6.93;4.47;;;10.80;99.90;;;;;;5034675;28;20205;-79
2023/01/10 12:04:45;;;;;;;7.32;4.28;;;10.80;99.90;;;;;;5032312;28;20300;-78
2023/01/10 12:10:39;;;;;;;6.53;4.10;;;10.80;99.90;;;;;;5033983;28;20347;-79
2023/01/10 12:13:14;;;;;;;6.05;4.40;;;10.80;99.90;;;;;;5031490;28;20232;-79
2023/01/10 12:18:59;;;;;;;7.00;5.00;;;10.80;99.90;;;;;;5011188;28;20225;-79
2023/01/10 12:21:45;;;;;;;5.53;4.70;;;10.80;99.90;;;;;;5026348;28;20232;-79
2023/01/10 12:24:28;;;;;;;10.68;4.88;;;10.80;99.90;;;;;;5027321;28;20217;-79
2023/01/10 12:26:56;;;;;;;9.00;5.07;;;10.80;99.90;;;;;;5019815;28;20221;-79
2023/01/10 12:29:27;;;;;;;10.75;5.28;;;10.80;99.90;;;;;;5013088;28;20276;-79
2023/01/10 12:31:57;;;;;;;15.15;4.85;;;10.90;99.90;;;;;;5022999;28;20317;-79
2023/01/10 12:34:33;;;;;;;4.93;3.38;;;10.80;99.90;;;;;;5017562;28;20238;-79
2023/01/10 12:37:09;;;;;;;9.32;6.43;;;10.90;99.90;;;;;;5026917;28;20540;-79
2023/01/10 12:39:53;;;;;;;14.75;7.43;;;10.80;99.90;;;;;;5003369;28;20230;-78
2023/01/10 12:45:36;;;;;;;7.60;5.05;;;10.80;99.90;;;;;;5018330;28;20236;-79
2023/01/10 12:48:18;;;;;;;6.88;3.55;;;10.80;99.90;;;;;;5019381;28;20568;-79
2023/01/10 12:50:52;;;;;;;7.65;3.80;;;10.90;99.90;;;;;;5020552;28;20671;-78
2023/01/10 12:53:36;;;;;;;8.18;3.80;;;10.90;99.90;;;;;;5030836;28;20664;-79
2023/01/10 12:56:09;;;;;;;8.80;3.60;;;10.90;99.90;;;;;;5026415;28;20560;-79
2023/01/10 12:58:43;;;;;;;9.23;3.75;;;10.90;99.90;;;;;;5024780;28;20225;-79
2023/01/10 13:01:13;;;;;;;7.03;3.47;;;10.90;99.90;;;;;;5026778;28;20256;-79
2023/01/10 13:03:41;;;;;;;8.38;3.15;;;10.90;99.90;;;;;;5022043;28;20297;-78
2023/01/10 13:06:27;;;;;;;8.13;3.28;;;11.00;99.90;;;;;;5029451;28;20230;-79
2023/01/10 13:08:56;;;;;;;3.67;3.03;;;11.00;99.90;;;;;;5034109;28;20239;-79
2023/01/10 13:11:28;;;;;;;8.68;3.75;;;11.00;99.90;;;;;;5042972;28;20701;-78
2023/01/10 13:13:59;;;;;;;11.13;3.45;;;11.00;99.90;;;;;;5017882;28;20226;-78
2023/01/10 13:16:36;;;;;;;4.47;3.17;;;11.00;99.90;;;;;;5011272;28;20226;-79
2023/01/10 13:19:21;;;;;;;5.95;2.72;;;11.00;99.90;;;;;;5021235;28;20280;-79
2023/01/10 13:21:57;;;;;;;3.63;2.42;;;11.00;99.90;;;;;;5021731;28;20253;-78
2023/01/10 13:24:26;;;;;;;5.38;3.15;;;11.00;99.90;;;;;;5035666;28;20290;-78
2023/01/10 13:26:59;;;;;;;9.48;3.08;;;11.00;99.90;;;;;;5026995;28;20234;-79
2023/01/10 13:29:29;;;;;;;5.93;2.85;;;11.00;99.90;;;;;;5025445;28;20241;-77
2023/01/10 13:32:02;;;;;;;4.80;2.90;;;11.10;99.90;;;;;;5024387;28;20233;-78
2023/01/10 13:34:33;;;;;;;11.45;5.40;;;11.10;99.90;;;;;;5005333;28;20236;-78
2023/01/10 13:37:34;;;;;;;12.25;4.13;;;11.00;99.90;;;;;;5016848;28;20226;-78
2023/01/10 13:40:27;;;;;;;8.55;4.82;;;11.00;99.90;;;;;;5005943;28;20234;-78
2023/01/10 13:43:32;;;;;;;8.60;6.05;;;11.00;99.90;;;;;;5024569;28;20229;-78
2023/01/10 13:46:37;;;;;;;7.82;3.95;;;11.00;99.90;;;;;;5014285;28;20221;-78
2023/01/10 13:49:43;;;;;;;7.10;3.72;;;11.00;99.90;;;;;;5021085;28;20648;-78
2023/01/10 13:52:40;;;;;;;8.63;3.78;;;11.00;99.90;;;;;;5014465;28;20304;-77
2023/01/10 13:55:48;;;;;;;9.57;4.00;;;11.00;99.90;;;;;;5013073;28;20245;-79
2023/01/10 14:04:20;;;;;;;5.57;3.80;;;10.80;99.90;;;;;;5019744;28;20260;-79
2023/01/10 14:07:23;;;;;;;9.07;4.53;;;10.80;99.90;;;;;;5017781;28;20225;-79
2023/01/10 14:10:00;;;;;;;7.55;4.80;;;10.80;99.90;;;;;;5022618;28;20256;-78
2023/01/10 14:12:48;;;;;;;7.57;4.45;;;10.70;99.90;;;;;;5025628;28;20620;-78
2023/01/10 14:15:24;;;;;;;8.65;3.90;;;10.80;99.90;;;;;;5040965;28;20959;-78
2023/01/10 14:18:17;;;;;;;9.20;4.25;;;10.70;99.90;;;;;;5025616;28;20535;-79
2023/01/10 14:20:57;;;;;;;9.15;4.18;;;10.70;99.90;;;;;;5031160;28;20703;-78